Statham, Georgia
Current Conditions -  °F | °C
As of 5:35 PM on Monday 20 Oct 2014 (Local Time) from KWDR Reporting Station
Scattered Clouds Scattered Clouds  
Wind Chill: 73°   Ceiling: Unl
Heat Index: 73°   Visibility: 10mi
Dew Point: 54°   Wind: 0mph
Humidity: 52%   Direction: NA
Pressure: 30.02"   Gusts: NA
Location:  33.97°N, 83.6°W
Report Text: KWDR 202135Z AUTO 00000KT 10SM SCT050 23/12 A3002 RMK AO2 T02260122 PWINO
Loading
Personal Weather Stations






























Interactive Weather Map
Tropical Storm Tracking
New forecast layout! Learn more

10-Day Weather Forecast

Advertisements
Track Severe Weather on mobile